Home > Products > Valid Products > TAF

000
FTUS43 KLSX 012100 AAA
TAFCOU
TAF AMD
KCOU 012104Z 0121/0218 27012KT P6SM BKN040 BKN200
     FM012300 21012KT P6SM VCTS BKN050CB
      TEMPO 0200/0202 4SM TSRA OVC035CB
     FM020200 20007KT P6SM -SHRA VCTS BKN050CB
     FM020500 VRB04KT P6SM SCT050 BKN100=



000
FTUS43 KLSX 012100 AAA
TAFUIN
TAF AMD
KUIN 012104Z 0121/0218 26012KT P6SM BKN035
     FM020400 VRB04KT P6SM BKN120=



000
FTUS43 KLSX 012100 AAA
TAFSUS
TAF AMD
KSUS 012104Z 0121/0218 24008KT P6SM SCT040 BKN200
     FM020100 23012KT 4SM TSRA BR OVC035CB
      TEMPO 0203/0207 2SM +TSRA OVC015CB
     FM020700 23007KT 5SM -SHRA VCTS BKN020CB
     FM021100 30007KT P6SM BKN035=



000
FTUS43 KLSX 012100 AAB
TAFSTL
TAF AMD
KSTL 012104Z 0121/0224 24010KT P6SM SCT040 BKN200
     FM020100 23012KT 4SM TSRA BR OVC035CB
      TEMPO 0203/0207 2SM +TSRA OVC015CB
     FM020700 23007KT 5SM -SHRA VCTS BKN020CB
     FM021100 30007KT P6SM BKN035=



000
FTUS43 KLSX 011900 AAA
TAFSTL
TAF AMD
KSTL 011934Z 0120/0224 26012G20KT P6SM SCT040 BKN200
     FM020100 23012KT 4SM TSRA BR OVC035CB
      TEMPO 0203/0207 2SM +TSRA OVC015CB
     FM020700 23007KT 5SM -SHRA VCTS BKN020CB
     FM021100 30007KT P6SM BKN035=



000
FTUS43 KLSX 011700
TAFSTL
TAF
KSTL 011731Z 0118/0224 24012G20KT P6SM SCT040 BKN200
     FM020100 23012KT 4SM TSRA BR OVC035CB
      TEMPO 0203/0207 2SM +TSRA OVC015CB
     FM020700 23007KT 5SM -SHRA VCTS BKN020CB
     FM021100 30007KT P6SM BKN035=



000
FTUS43 KLSX 011700
TAFSUS
TAF
KSUS 011731Z 0118/0218 24010G18KT P6SM SCT040 BKN200
     FM020100 23012KT 4SM TSRA BR OVC035CB
      TEMPO 0203/0207 2SM +TSRA OVC015CB
     FM020700 23007KT 5SM -SHRA VCTS BKN020CB
     FM021100 30007KT P6SM BKN035=



000
FTUS43 KLSX 011700
TAFUIN
TAF
KUIN 011731Z 0118/0218 26012G22KT P6SM SCT025 BKN200
      TEMPO 0118/0119 BKN025
     FM011900 26012G22KT P6SM BKN035
     FM020400 VRB04KT P6SM BKN120=



000
FTUS43 KLSX 011700
TAFCOU
TAF
KCOU 011731Z 0118/0218 24012G20KT P6SM BKN040 BKN200
     FM012300 21012KT P6SM VCTS BKN050CB
      TEMPO 0200/0202 4SM TSRA OVC035CB
     FM020200 20007KT P6SM -SHRA VCTS BKN050CB
     FM020500 VRB04KT P6SM SCT050 BKN100=



000
FTUS43 KLSX 011600 AAB
TAFUIN
TAF AMD
KUIN 011620Z 0116/0212 26012G22KT P6SM SCT025 BKN200
      TEMPO 0117/0119 BKN025
     FM011900 26012G22KT P6SM BKN035
     FM020000 29005KT P6SM VCTS BKN050CB
     FM020300 34005KT P6SM BKN120=



000
FTUS43 KLSX 011500 AAC
TAFSUS
TAF AMD
KSUS 011503Z 0115/0212 20012G20KT P6SM VCSH BKN040 OVC200
     FM011600 23011G18KT P6SM BKN035
     FM012200 22012KT 5SM -TSRA BR BKN030CB
     FM020300 23007KT P6SM -SHRA VCTS BKN050CB
     FM020600 23007KT P6SM SCT050 BKN100=



000
FTUS43 KLSX 011500 AAC
TAFSTL
TAF AMD
KSTL 011502Z 0115/0218 16011KT P6SM VCSH SCT040 OVC200
     FM011600 23013G20KT P6SM BKN035
     FM012200 22012KT 5SM -TSRA BR BKN030CB
     FM020300 23007KT P6SM -SHRA VCTS BKN050CB
     FM020600 23007KT P6SM SCT050 BKN100
     FM021400 31005KT P6SM BKN150=



000
FTUS43 KLSX 011400 AAA
TAFUIN
TAF AMD
KUIN 011413Z 0114/0212 27010KT P6SM SCT040 BKN200
     FM020000 29005KT P6SM VCTS BKN050CB
     FM020300 34005KT P6SM BKN120=



000
FTUS43 KLSX 011400 AAB
TAFCOU
TAF AMD
KCOU 011411Z 0114/0212 20010KT P6SM VCSH SCT060 OVC200
     FM011700 23014G21KT P6SM BKN040
     FM012200 21012KT 5SM -TSRA BR BKN030CB
     FM020300 20007KT P6SM -SHRA VCTS BKN050CB
     FM020500 20008KT P6SM SCT050 BKN100=



000
FTUS43 KLSX 011400 AAB
TAFSUS
TAF AMD
KSUS 011403Z 0114/0212 16012G20KT P6SM VCSH BKN040 OVC200
     FM011700 23011G18KT P6SM BKN035
     FM012200 22012KT 5SM -TSRA BR BKN030CB
     FM020300 23007KT P6SM -SHRA VCTS BKN050CB
     FM020600 23007KT P6SM SCT050 BKN100=



000
FTUS43 KLSX 011400 AAB
TAFSTL
TAF AMD
KSTL 011402Z 0114/0218 16011KT P6SM VCSH SCT040 OVC200
     FM011700 23013G20KT P6SM BKN035
     FM012200 22012KT 5SM -TSRA BR BKN030CB
     FM020300 23007KT P6SM -SHRA VCTS BKN050CB
     FM020600 23007KT P6SM SCT050 BKN100
     FM021400 31005KT P6SM BKN150=



000
FTUS43 KLSX 011200 AAA
TAFCOU
TAF AMD
KCOU 011223Z 0112/0212 15014G24KT P6SM SCT060 BKN120
      TEMPO 0112/0113 -RA BKN060
     FM011600 21014G21KT P6SM BKN040
     FM012200 21012KT 5SM -TSRA BR BKN030CB
     FM020300 20007KT P6SM -SHRA VCTS BKN050CB
     FM020500 20008KT P6SM SCT050 BKN100=



000
FTUS43 KLSX 011200 AAA
TAFSUS
TAF AMD
KSUS 011206Z 0112/0212 26012G20KT 6SM -SHRA VCTS SCT030 BKN060CB
     FM011600 23011G18KT P6SM BKN035
     FM012200 22012KT 5SM -TSRA BR BKN030CB
     FM020300 23007KT P6SM -SHRA VCTS BKN050CB
     FM020600 23007KT P6SM SCT050 BKN100=



000
FTUS43 KLSX 011200 AAA
TAFSTL
TAF AMD
KSTL 011205Z 0112/0218 25012G22KT 6SM -SHRA VCTS SCT030 BKN060CB
     FM011600 23013G20KT P6SM BKN035
     FM012200 22012KT 5SM -TSRA BR BKN030CB
     FM020300 23007KT P6SM -SHRA VCTS BKN050CB
     FM020600 23007KT P6SM SCT050 BKN100
     FM021400 31005KT P6SM BKN150=



000
FTUS43 KLSX 011100
TAFCOU
TAF
KCOU 011136Z 0112/0212 21012KT P6SM SCT060 BKN120
      TEMPO 0112/0113 -RA BKN060
     FM011600 21014G21KT P6SM BKN040
     FM012200 21012KT 5SM -TSRA BR BKN030CB
     FM020300 20007KT P6SM -SHRA VCTS BKN050CB
     FM020500 20008KT P6SM SCT050 BKN100=



000
FTUS43 KLSX 011100
TAFSUS
TAF
KSUS 011136Z 0112/0212 22007KT 5SM -SHRA VCTS SCT030 BKN060CB
     FM011600 23011G18KT P6SM BKN035
     FM012200 22012KT 5SM -TSRA BR BKN030CB
     FM020300 23007KT P6SM -SHRA VCTS BKN050CB
     FM020600 23007KT P6SM SCT050 BKN100=



000
FTUS43 KLSX 011100
TAFSTL
TAF
KSTL 011136Z 0112/0218 22012KT 5SM -SHRA VCTS SCT030 BKN060CB
     FM011600 23013G20KT P6SM BKN035
     FM012200 22012KT 5SM -TSRA BR BKN030CB
     FM020300 23007KT P6SM -SHRA VCTS BKN050CB
     FM020600 23007KT P6SM SCT050 BKN100
     FM021400 31005KT P6SM BKN150=



000
FTUS43 KLSX 011100
TAFUIN
TAF
KUIN 011136Z 0112/0212 24010KT P6SM SCT040 BKN100
      TEMPO 0112/0113 -RA BKN060
     FM011600 23013KT P6SM BKN040
     FM020000 29005KT P6SM VCTS BKN050CB
     FM020300 34005KT P6SM BKN120=



000
FTUS43 KLSX 010900 AAA
TAFSUS
TAF AMD
KSUS 010913Z 0109/0206 18007KT P6SM SCT040 BKN080
     FM011400 20011KT 5SM -SHRA VCTS SCT030 BKN070CB
     FM011600 21013G20KT P6SM BKN035
     FM012100 22013KT P6SM VCTS BKN040CB
     FM020100 22005KT P6SM VCTS BKN050CB=



000
FTUS43 KLSX 010900 AAA
TAFSTL
TAF AMD
KSTL 010911Z 0109/0212 18010KT P6SM SCT070 BKN250
     FM011400 20011KT 5SM -SHRA VCTS SCT030 BKN070CB
     FM011600 21013G20KT P6SM BKN035
     FM012100 22014KT P6SM VCTS BKN040CB
     FM020100 22007KT P6SM VCTS BKN050CB
     FM020600 23007KT P6SM SCT050 BKN100=



000
FTUS43 KLSX 010800 AAB
TAFCOU
TAF AMD
KCOU 010840Z 0109/0206 20008KT 6SM -SHRA BKN070
      TEMPO 0109/0112 VRB20KT 4SM -TSRA OVC035CB
     FM011200 18012KT P6SM BKN030
     FM012100 22011KT P6SM VCTS BKN040CB=



000
FTUS43 KLSX 010800 AAA
TAFUIN
TAF AMD
KUIN 010835Z 0109/0206 22010KT P6SM SCT040 BKN100
      TEMPO 0110/0113 VRB20KT 5SM -TSRA BR BKN035CB
     FM011300 21014KT P6SM BKN035
     FM011800 22013KT P6SM BKN045
     FM020000 VRB04KT P6SM VCTS BKN050CB=



000
FTUS43 KLSX 010500 AAA
TAFCOU
TAF AMD
KCOU 010551Z 0106/0206 17010KT P6SM SCT040 BKN250
      TEMPO 0106/0108 30015G30KT 5SM -SHRA BKN050
     FM010800 18011KT 5SM -SHRA BKN040
      TEMPO 0108/0110 VRB15G30KT 2SM +TSRA OVC020CB
     FM011200 18012KT P6SM BKN020
     FM012100 22013KT P6SM VCTS BKN040CB
     FM020000 20007KT P6SM VCTS BKN050CB=



000
FTUS43 KLSX 010500
TAFUIN
TAF
KUIN 010520Z 0106/0206 16010KT P6SM BKN250
     FM010900 20011KT 5SM -SHRA BKN040
      TEMPO 0109/0111 VRB15G30KT 2SM +TSRA BR OVC020CB
     FM011300 21014KT P6SM BKN020
     FM011800 22013KT P6SM BKN040
     FM020000 VRB04KT P6SM VCTS BKN050CB=



000
FTUS43 KLSX 010500
TAFCOU
TAF
KCOU 010520Z 0106/0206 17010KT P6SM BKN250
     FM010800 18011KT 5SM -SHRA BKN040
      TEMPO 0108/0110 VRB15G30KT 2SM +TSRA OVC020CB
     FM011200 18012KT P6SM BKN020
     FM012100 22013KT P6SM VCTS BKN040CB
     FM020000 20007KT P6SM VCTS BKN050CB=



000
FTUS43 KLSX 010500
TAFSTL
TAF
KSTL 010520Z 0106/0212 18010KT P6SM SCT070 BKN250
     FM011200 20011KT P6SM VCTS BKN025CB
      TEMPO 0112/0115 4SM -SHRA BR OVC015
     FM011500 21013KT P6SM BKN030
     FM012100 22014KT P6SM VCTS BKN040CB
     FM020100 22007KT P6SM VCTS BKN050CB
     FM020600 23007KT P6SM SCT050 BKN100=



000
FTUS43 KLSX 010500
TAFSUS
TAF
KSUS 010520Z 0106/0206 18007KT P6SM SCT070 BKN250
     FM011200 20010KT P6SM VCTS BKN025CB
      TEMPO 0112/0115 4SM -SHRA BR OVC015
     FM011500 21012KT P6SM BKN030
     FM012100 22013KT P6SM VCTS BKN040CB
     FM020100 22005KT P6SM VCTS BKN050CB=



000
FTUS43 KLSX 010300 AAA
TAFSTL
TAF AMD
KSTL 010311Z 0103/0206 17009KT P6SM SCT250
     FM011200 20010KT P6SM VCSH BKN030 OVC100
     FM011600 21014KT P6SM SCT035 BKN080
     FM012100 22014KT P6SM VCTS BKN045CB
     FM020100 22008KT P6SM VCTS BKN050CB=



000
FTUS43 KLSX 312300
TAFUIN
TAF
KUIN 312337Z 0100/0124 16009KT P6SM SCT250
     FM011000 19010KT 6SM -SHRA BKN020
      TEMPO 0110/0112 3SM TSRA BR OVC010CB
     FM011400 20013KT P6SM BKN030
     FM011800 23014KT P6SM BKN050=



000
FTUS43 KLSX 312300
TAFCOU
TAF
KCOU 312337Z 0100/0124 16010KT P6SM SCT250
     FM011000 18011KT 6SM -SHRA BKN030
      TEMPO 0110/0112 3SM TSRA OVC015CB
     FM011400 18013KT P6SM BKN040
     FM012100 22014KT P6SM VCTS SCT040CB BKN120=



000
FTUS43 KLSX 312300
TAFSTL
TAF
KSTL 312337Z 0100/0206 17008KT P6SM SCT250
     FM011300 20012KT P6SM VCSH BKN050 OVC100
     FM011600 21015KT P6SM BKN080
     FM012100 22015KT P6SM VCTS BKN045CB
     FM020100 21008KT P6SM VCTS BKN050CB=



000
FTUS43 KLSX 312300
TAFSUS
TAF
KSUS 312337Z 0100/0124 17006KT P6SM SCT250
     FM011300 20011KT P6SM VCSH BKN050 OVC100
     FM011600 21014KT P6SM BKN080
     FM012100 22014KT P6SM VCTS BKN045CB=



000
FTUS43 KLSX 312100 AAB
TAFSTL
TAF AMD
KSTL 312121Z 3121/0124 15011KT P6SM VCTS SCT050CB BKN250
     FM010000 17008KT P6SM SCT250
     FM011500 19012KT P6SM VCSH BKN060 BKN120
     FM011700 19012KT P6SM SCT080
     FM012100 22012KT P6SM VCTS BKN045CB=



000
FTUS43 KLSX 312100 AAA
TAFSUS
TAF AMD
KSUS 312109Z 3121/0118 16009KT P6SM SCT050
     FM010000 17008KT P6SM SCT250
     FM011500 19012KT P6SM VCSH BKN060 BKN120=



000
FTUS43 KLSX 312100 AAA
TAFSTL
TAF AMD
KSTL 312100Z 3121/0124 15011KT P6SM SCT050
     FM010000 17008KT P6SM SCT250
     FM011500 19012KT P6SM VCSH BKN060 BKN120
     FM011700 19012KT P6SM SCT080
     FM012100 22012KT P6SM VCTS BKN045CB=



000
FTUS43 KLSX 311700
TAFSUS
TAF
KSUS 311726Z 3118/0118 23007KT P6SM SCT035
     FM010000 17008KT P6SM SCT250
     FM011500 19012KT P6SM VCSH BKN060 BKN120=



000
FTUS43 KLSX 311700
TAFUIN
TAF
KUIN 311726Z 3118/0118 20008KT P6SM SKC
     FM010000 16008KT P6SM SCT250
     FM011100 19009KT 6SM -SHRA OVC015
      TEMPO 0111/0113 3SM TSRA BR OVC010CB
     FM011500 20012KT P6SM BKN060=



000
FTUS43 KLSX 311700
TAFSTL
TAF
KSTL 311726Z 3118/0124 22007KT P6SM SCT035
     FM010000 17008KT P6SM SCT250
     FM011500 19012KT P6SM VCSH BKN060 BKN120
     FM011700 19012KT P6SM SCT080
     FM012100 22012KT P6SM VCTS BKN045CB=



000
FTUS43 KLSX 311700
TAFCOU
TAF
KCOU 311726Z 3118/0118 19009KT P6SM FEW040
     FM010000 16009KT P6SM SCT250
     FM011200 19010KT P6SM VCTS BKN050CB
     FM011600 20012KT P6SM BKN060=



000
FTUS43 KLSX 311600 AAE
TAFSTL
TAF AMD
KSTL 311603Z 3116/0118 23008KT P6SM BKN020
     FM311800 22007KT P6SM SCT035
     FM010000 17008KT P6SM SCT250
     FM011600 21012KT P6SM VCSH BKN035 BKN120=



000
FTUS43 KLSX 311500 AAD
TAFSTL
TAF AMD
KSTL 311512Z 3115/0118 22005KT P6SM SCT018 SCT250
     FM311600 22008KT P6SM SCT030
     FM010000 17008KT P6SM SCT250
     FM011600 21012KT P6SM VCSH BKN035 BKN120=



000
FTUS43 KLSX 311400 AAC
TAFSTL
TAF AMD
KSTL 311429Z 3114/0118 22005KT P6SM SCT012 SCT250
      TEMPO 3114/3115 BKN012
     FM311530 22008KT P6SM SCT035
     FM010000 17008KT P6SM SCT250
     FM011600 21012KT P6SM VCSH BKN035 BKN120=



000
FTUS43 KLSX 311300 AAB
TAFSTL
TAF AMD
KSTL 311340Z 3114/0118 22005KT P6SM SCT009 SCT250
      TEMPO 3114/3115 BKN009
     FM311530 22008KT P6SM SCT035
     FM010000 17008KT P6SM SCT250
     FM011600 21012KT P6SM VCSH BKN035 BKN120=



000
FTUS43 KLSX 311300 AAA
TAFUIN
TAF AMD
KUIN 311335Z 3114/0112 20008KT P6SM SKC
     FM010000 16008KT P6SM SCT250
     FM011000 19009KT 4SM -TSRA OVC015CB=



000
FTUS43 KLSX 311300 AAA
TAFSTL
TAF AMD
KSTL 311335Z 3114/0118 22005KT P6SM FEW009 SCT250
     FM311430 22008KT P6SM SCT035
     FM010000 17008KT P6SM SCT250
     FM011600 21012KT P6SM VCSH BKN035 BKN120=



000
FTUS43 KLSX 311300 AAA
TAFCOU
TAF AMD
KCOU 311335Z 3114/0112 19009KT P6SM SKC
     FM010000 16009KT P6SM SCT250
     FM010900 19010KT P6SM SCT050 BKN100=



000
FTUS43 KLSX 311300 AAA
TAFSUS
TAF AMD
KSUS 311335Z 3114/0112 VRB03KT P6SM FEW009
     FM311430 22007KT P6SM SCT035
     FM010000 17005KT P6SM SCT250=



000
FTUS43 KLSX 311100
TAFUIN
TAF
KUIN 311120Z 3112/0112 VRB03KT 4SM BR SKC
     FM311400 20008KT P6SM SKC
     FM010000 16008KT P6SM SCT250
     FM011000 19009KT 4SM -TSRA OVC015CB=



000
FTUS43 KLSX 311100
TAFSTL
TAF
KSTL 311120Z 3112/0118 VRB04KT 6SM BR SKC
     FM311400 22008KT P6SM SCT035
     FM010000 17008KT P6SM SCT250
     FM011600 21012KT P6SM VCSH BKN035 BKN120=



000
FTUS43 KLSX 311100
TAFSUS
TAF
KSUS 311120Z 3112/0112 VRB03KT 3SM BR SKC
     FM311400 22007KT P6SM SCT035
     FM010000 17005KT P6SM SCT250=



000
FTUS43 KLSX 311100
TAFCOU
TAF
KCOU 311120Z 3112/0112 VRB04KT 4SM BR SKC
     FM311400 20009KT P6SM SKC
     FM010000 16009KT P6SM SCT250
     FM010900 19010KT P6SM SCT050 BKN100=



000
FTUS43 KLSX 310800 AAA
TAFSTL
TAF AMD
KSTL 310850Z 3109/0112 18006KT P6SM SCT050 BKN120
     FM311000 VRB04KT 5SM BR BKN015
     FM311400 22008KT P6SM SCT030
     FM010000 17008KT P6SM SCT250=



000
FTUS43 KLSX 310500
TAFCOU
TAF
KCOU 310520Z 3106/0106 VRB04KT P6SM SCT045
     FM311000 VRB04KT 4SM BR BKN010
     FM311400 20009KT P6SM SKC
     FM010000 16009KT P6SM SKC=



000
FTUS43 KLSX 310500
TAFUIN
TAF
KUIN 310520Z 3106/0106 VRB03KT P6SM SKC
     FM311000 VRB03KT 3SM BR BKN010
     FM311400 20008KT P6SM SKC
     FM010000 16008KT P6SM SKC=



000
FTUS43 KLSX 310500
TAFSUS
TAF
KSUS 310520Z 3106/0106 VRB03KT P6SM SCT050 BKN120
     FM311000 VRB03KT 3SM BR BKN010
     FM311400 22007KT P6SM SCT030
     FM010000 17005KT P6SM SCT250=



000
FTUS43 KLSX 310500
TAFSTL
TAF
KSTL 310520Z 3106/0112 18006KT P6SM SCT050 BKN120
     FM311000 VRB04KT 5SM BR BKN015
     FM311400 22008KT P6SM SCT030
     FM010000 17008KT P6SM SCT250=



000
FTUS43 KLSX 310300 AAA
TAFSTL
TAF AMD
KSTL 310325Z 3103/0106 19007KT P6SM SCT050 BKN120
     FM311000 VRB04KT 5SM BR SCT015 BKN250
     FM311400 22008KT P6SM SCT030
     FM010000 17008KT P6SM SKC=



000
FTUS43 KLSX 302300
TAFSTL
TAF
KSTL 302338Z 3100/0106 19008KT P6SM VCTS BKN050CB OVC100
     FM310100 19006KT P6SM SCT050 BKN120
     FM310600 20005KT P6SM SCT120 BKN250
     FM311000 VRB04KT 5SM BR SCT015
     FM311400 22008KT P6SM SCT030
     FM010000 17008KT P6SM SKC=



000
FTUS43 KLSX 302300
TAFSUS
TAF
KSUS 302338Z 3100/3124 19005KT P6SM VCSH SCT050 BKN120
     FM310100 VRB04KT P6SM SCT120 BKN250
     FM311000 VRB03KT 3SM BR SCT015
     FM311400 22007KT P6SM SCT030=



000
FTUS43 KLSX 302300
TAFCOU
TAF
KCOU 302338Z 3100/3124 14005KT P6SM SCT050 BKN250
     FM310100 VRB04KT P6SM SCT250
     FM311000 VRB04KT 5SM BR SCT015
     FM311400 20009KT P6SM SKC=



000
FTUS43 KLSX 302300
TAFUIN
TAF
KUIN 302338Z 3100/3124 29005KT P6SM SCT050 BKN250
     FM310100 VRB04KT P6SM SCT250
     FM311000 VRB03KT 3SM BR SCT015
     FM311400 19008KT P6SM SKC=



000
FTUS43 KLSX 302100 AAB
TAFSTL
TAF AMD
KSTL 302132Z 3022/3124 21011KT P6SM VCTS BKN040CB OVC080
      TEMPO 3022/3023 VRB15G30KT 2SM TSRA OVC030CB
     FM310100 19006KT P6SM SCT050 BKN120
     FM311000 18004KT 5SM BR SCT015
     FM311400 22004KT P6SM SCT030=



000
FTUS43 KLSX 302000 AAA
TAFSTL
TAF AMD
KSTL 302057Z 3021/3124 20011KT P6SM VCTS SCT040CB BKN200
     FM310100 19006KT P6SM SCT050 BKN120
     FM311000 18004KT 5SM BR SCT015
     FM311400 22004KT P6SM SCT030=



000
FTUS43 KLSX 302000 AAA
TAFCOU
TAF AMD
KCOU 302005Z 3020/3118 25008KT P6SM VCTS SCT045CB
      TEMPO 3020/3021 VRB12G20KT 3SM -TSRA OVC040CB
     FM310000 18005KT P6SM SCT050 BKN250
     FM311000 17004KT 5SM BR SCT015
     FM311400 20006KT P6SM SCT030=



000
FTUS43 KLSX 301700
TAFSUS
TAF
KSUS 301737Z 3018/3118 20011KT P6SM VCSH SCT025 BKN040
     FM302000 23011KT P6SM VCTS SCT040CB BKN100
     FM310100 19006KT P6SM SCT050 BKN120
     FM311000 18004KT 5SM BR SCT015
     FM311400 22004KT P6SM SCT030=



000
FTUS43 KLSX 301700
TAFUIN
TAF
KUIN 301737Z 3018/3118 25009KT P6SM BKN035
     FM302300 VRB04KT P6SM SCT050 BKN250
     FM311000 18005KT 3SM BR SCT015
     FM311400 20005KT P6SM SCT030=



000
FTUS43 KLSX 301700
TAFSTL
TAF
KSTL 301737Z 3018/3124 20011KT P6SM VCSH SCT025 BKN040
     FM302000 23011KT P6SM VCTS SCT040CB BKN100
     FM310100 19006KT P6SM SCT050 BKN120
     FM311000 18004KT 5SM BR SCT015
     FM311400 22004KT P6SM SCT030=



000
FTUS43 KLSX 301700
TAFCOU
TAF
KCOU 301737Z 3018/3118 22007KT P6SM BKN035
     FM302000 23008KT P6SM VCTS SCT030CB BKN120
     FM310000 18005KT P6SM SCT050 BKN250
     FM311000 17004KT 5SM BR SCT015
     FM311400 20006KT P6SM SCT030=



000
FTUS43 KLSX 301600 AAB
TAFUIN
TAF AMD
KUIN 301629Z 3016/3112 24009KT P6SM BKN021
     FM302000 25009KT P6SM BKN035
     FM302300 VRB04KT P6SM SCT050 BKN250
     FM310500 18005KT P6SM SCT015=



000
FTUS43 KLSX 301500 AAA
TAFSUS
TAF AMD
KSUS 301505Z 3015/3112 21008KT P6SM SCT035 BKN200
      TEMPO 3016/3018 4SM -TSRA BKN035CB
     FM301800 23011KT P6SM VCTS SCT040CB BKN100
     FM310000 19006KT P6SM SCT050 BKN120=



000
FTUS43 KLSX 301500 AAA
TAFSTL
TAF AMD
KSTL 301504Z 3015/3118 19009KT P6SM SCT035 BKN200
      TEMPO 3017/3019 4SM -TSRA BKN035CB
     FM301900 23011KT P6SM VCTS SCT040CB BKN100
     FM310000 19006KT P6SM SCT050 BKN120=



000
FTUS43 KLSX 301400 AAA
TAFUIN
TAF AMD
KUIN 301453Z 3015/3112 24009KT P6SM SCT016 BKN250
      TEMPO 3015/3017 BKN016
     FM301800 25009KT P6SM SCT030 BKN250
     FM302300 VRB04KT P6SM SCT050 BKN250
     FM310500 18005KT P6SM SCT015=



000
FTUS43 KLSX 301100
TAFCOU
TAF
KCOU 301128Z 3012/3112 19007KT P6SM SCT080 BKN250
     FM301600 24008KT P6SM VCTS SCT030CB BKN120
     FM310000 VRB05KT P6SM SCT050 BKN120
     FM310500 18005KT P6SM SCT050 BKN250=



000
FTUS43 KLSX 301100
TAFSUS
TAF
KSUS 301128Z 3012/3112 19005KT P6SM BKN100
     FM301700 23011KT P6SM VCTS SCT040CB BKN100
     FM310000 19006KT P6SM SCT050 BKN120=



000
FTUS43 KLSX 301100
TAFUIN
TAF
KUIN 301128Z 3012/3112 20007KT P6SM SCT080 BKN250
     FM301500 24009KT P6SM SCT030 BKN250
     FM302300 VRB04KT P6SM SCT050 BKN250
     FM310500 18005KT P6SM SCT015
      TEMPO 3109/3112 3SM BR=



000
FTUS43 KLSX 301100
TAFSTL
TAF
KSTL 301128Z 3012/3118 19009KT P6SM BKN100
     FM301700 23011KT P6SM VCTS SCT040CB BKN100
     FM310000 19006KT P6SM SCT050 BKN120=



000
FTUS43 KLSX 300900 AAA
TAFSTL
TAF AMD
KSTL 300902Z 3009/3112 20009KT P6SM BKN100
     FM301700 22011KT P6SM VCTS SCT040CB BKN100
     FM310000 20007KT P6SM SCT050 BKN120=



000
FTUS43 KLSX 300900 AAA
TAFCOU
TAF AMD
KCOU 300901Z 3009/3106 21007KT P6SM VCSH SCT030 BKN060
     FM301500 22008KT P6SM SCT030 BKN120
     FM310000 17005KT P6SM SCT050 BKN120=



000
FTUS43 KLSX 300500
TAFCOU
TAF
KCOU 300520Z 3006/3106 19007KT P6SM SCT080 BKN250
     FM301500 22008KT P6SM SCT030 BKN120
     FM310000 17005KT P6SM SCT050 BKN120=



000
FTUS43 KLSX 300500
TAFSUS
TAF
KSUS 300520Z 3006/3106 20006KT P6SM BKN100
     FM301700 22010KT P6SM VCTS SCT040CB BKN100
     FM310000 20005KT P6SM SCT050 BKN120=



000
FTUS43 KLSX 300500
TAFUIN
TAF
KUIN 300520Z 3006/3106 20007KT P6SM SCT100 BKN250
     FM300800 21007KT P6SM VCTS SCT050CB BKN100
     FM301500 24009KT P6SM SCT030 BKN120
     FM310000 20005KT P6SM SCT050 BKN120=



000
FTUS43 KLSX 300500
TAFSTL
TAF
KSTL 300520Z 3006/3112 20009KT P6SM BKN100
     FM301700 22011KT P6SM VCTS SCT040CB BKN100
     FM310000 20007KT P6SM SCT050 BKN120=



000
FTUS43 KLSX 300300 AAB
TAFSTL
TAF AMD
KSTL 300325Z 3003/3106 19008KT P6SM BKN100
     FM301700 22010KT P6SM VCTS SCT040CB BKN120
     FM310000 20007KT P6SM SCT050 BKN120=



000
FTUS43 KLSX 300000 AAA
TAFSUS
TAF AMD
KSUS 300037Z 3001/3024 29005KT P6SM VCSH SCT050 OVC080
     FM300200 19006KT P6SM BKN060
      TEMPO 3009/3012 5SM BR
     FM301700 22009KT P6SM VCTS SCT040CB BKN120=



000
FTUS43 KLSX 300000 AAA
TAFSTL
TAF AMD
KSTL 300036Z 3001/3106 26010KT P6SM VCSH BKN050 OVC080
     FM300200 19008KT P6SM BKN060
     FM301700 22010KT P6SM VCTS SCT040CB BKN120
     FM310000 20007KT P6SM SCT050 BKN120=



000
FTUS43 KLSX 292300
TAFSTL
TAF
KSTL 292323Z 3000/3106 24010KT P6SM VCTS BKN040CB OVC080
      TEMPO 3000/3001 VRB15G25KT 5SM -TSRA
     FM300200 19008KT P6SM BKN060
     FM301700 22010KT P6SM VCTS SCT040CB BKN120
     FM310000 20007KT P6SM SCT050 BKN120=



000
FTUS43 KLSX 292300
TAFCOU
TAF
KCOU 292323Z 3000/3024 17008KT P6SM VCSH SCT050 BKN100
     FM300100 18008KT P6SM BKN080
     FM301500 25008KT P6SM SCT030 BKN120=



000
FTUS43 KLSX 292300
TAFSUS
TAF
KSUS 292323Z 3000/3024 24010KT P6SM VCTS BKN040CB OVC080
      TEMPO 3000/3001 5SM -TSRA
     FM300200 19006KT P6SM BKN060
      TEMPO 3009/3012 5SM BR
     FM301700 22009KT P6SM VCTS SCT040CB BKN120=



000
FTUS43 KLSX 292300
TAFUIN
TAF
KUIN 292323Z 3000/3024 19008KT P6SM VCTS BKN050CB
     FM300100 19007KT P6SM BKN060
     FM301000 21007KT P6SM SCT020 BKN100
     FM301500 25009KT P6SM SCT030 BKN120=



000
FTUS43 KLSX 292200 AAC
TAFUIN
TAF AMD
KUIN 292226Z 2922/3018 21010KT 5SM -SHRA VCTS BKN040CB OVC080
      TEMPO 2922/2923 VRB20G40KT 1/4SM +TSRA OVC015CB
     FM300100 20007KT P6SM BKN050
     FM301000 23008KT P6SM SCT020=



000
FTUS43 KLSX 292200 AAB
TAFSUS
TAF AMD
KSUS 292221Z 2922/3018 16008KT P6SM SCT040 BKN080
     FM292300 19008KT 6SM -SHRA VCTS BKN040CB OVC080
      TEMPO 2923/2924 VRB15G30KT 3SM TSRA
     FM300200 19008KT P6SM BKN060
     FM301200 20008KT P6SM SCT060=



000
FTUS43 KLSX 292200 AAB
TAFUIN
TAF AMD
KUIN 292208Z 2922/3018 19008KT 6SM -SHRA VCTS BKN040CB OVC080
      TEMPO 2922/2923 VRB15G30KT 2SM TSRA OVC030CB
     FM300100 20007KT P6SM BKN050
     FM301000 23008KT P6SM SCT020=



    US Dept of Commerce
    National Oceanic and Atmospheric Administration
    National Weather Service
    1325 East West Highway
    Silver Spring, MD 20910
    Page Author: NWS Internet Services Team
Disclaimer
Information Quality
Credits
Glossary
Privacy Policy
Freedom of Information Act (FOIA)
About Us
Career Opportunities